createdAt,value
2019-02-08T00:02:26.773Z,93.20
2019-02-08T00:04:56.691Z,93.30
2019-02-08T00:07:27.501Z,93.30
2019-02-08T00:09:57.197Z,93.40
2019-02-08T00:12:26.756Z,93.30
2019-02-08T00:14:57.248Z,93.30
2019-02-08T00:17:29.120Z,93.30
2019-02-08T00:19:59.663Z,93.40
2019-02-08T00:22:29.359Z,93.30
2019-02-08T00:24:58.716Z,93.30
2019-02-08T00:27:28.280Z,93.40
2019-02-08T00:29:57.763Z,93.70
2019-02-08T00:32:27.373Z,93.40
2019-02-08T00:34:57.582Z,93.40
2019-02-08T00:37:27.027Z,93.40
2019-02-08T00:39:56.459Z,93.40
2019-02-08T00:42:25.602Z,93.50
2019-02-08T00:44:54.953Z,93.40
2019-02-08T00:47:24.274Z,93.40
2019-02-08T00:49:53.845Z,93.20
2019-02-08T00:52:24.338Z,93.20
2019-02-08T00:54:54.072Z,93.20
2019-02-08T00:57:24.226Z,93.10
2019-02-08T00:59:53.605Z,93.20
2019-02-08T01:02:23.128Z,93.20
2019-02-08T01:04:53.577Z,93.20
2019-02-08T01:07:22.954Z,93.20
2019-02-08T01:09:52.471Z,93.10
2019-02-08T01:12:22.311Z,93.20
2019-02-08T01:14:53.123Z,93.20
2019-02-08T01:17:24.575Z,93.20
2019-02-08T01:19:54.121Z,93.10
2019-02-08T01:22:23.252Z,93.10
2019-02-08T01:24:53.134Z,93.00
2019-02-08T01:27:22.794Z,92.90
2019-02-08T01:29:53.365Z,92.90
2019-02-08T01:32:22.774Z,92.70
2019-02-08T01:34:51.914Z,92.60
2019-02-08T01:37:21.337Z,92.50
2019-02-08T01:39:50.740Z,92.40
2019-02-08T01:42:20.726Z,92.40
2019-02-08T01:44:50.197Z,92.40
2019-02-08T01:47:21.423Z,92.20
2019-02-08T01:49:50.977Z,92.10
2019-02-08T01:52:20.412Z,92.10
2019-02-08T01:54:49.826Z,92.10
2019-02-08T01:57:19.328Z,91.90
2019-02-08T01:59:48.494Z,91.90
2019-02-08T02:02:17.905Z,92.00
2019-02-08T02:04:47.563Z,92.00
2019-02-08T02:07:16.715Z,92.00
2019-02-08T02:09:45.941Z,92.10
2019-02-08T02:12:15.737Z,92.20
2019-02-08T02:14:45.153Z,92.30
2019-02-08T02:17:14.634Z,92.20
2019-02-08T02:19:43.897Z,92.30
2019-02-08T02:22:12.993Z,92.70
2019-02-08T02:24:42.445Z,92.40
2019-02-08T02:27:11.939Z,92.40
2019-02-08T02:29:41.364Z,92.30
2019-02-08T02:32:13.836Z,92.30
2019-02-08T02:34:43.528Z,92.30
2019-02-08T02:37:12.506Z,92.30
2019-02-08T02:39:41.886Z,92.40
2019-02-08T02:42:11.215Z,92.30
2019-02-08T02:44:40.323Z,92.30
2019-02-08T02:47:09.725Z,92.30
2019-02-08T02:49:39.097Z,92.40
2019-02-08T02:52:08.520Z,92.30
2019-02-08T02:54:37.592Z,92.10
2019-02-08T02:57:07.047Z,92.00
2019-02-08T02:59:36.461Z,91.90
2019-02-08T03:02:06.279Z,91.80
2019-02-08T03:04:35.343Z,91.60
2019-02-08T03:07:04.454Z,91.60
2019-02-08T03:09:35.605Z,91.70
2019-02-08T03:12:04.690Z,91.70
2019-02-08T03:14:34.461Z,91.70
2019-02-08T03:17:04.168Z,91.90
2019-02-08T03:19:33.170Z,91.50
2019-02-08T03:22:02.765Z,91.50
2019-02-08T03:24:32.158Z,91.60
2019-02-08T03:27:01.990Z,91.80
2019-02-08T03:29:31.421Z,91.50
2019-02-08T03:32:01.240Z,91.20
2019-02-08T03:34:30.351Z,91.30
2019-02-08T03:36:59.749Z,91.40
2019-02-08T03:39:28.981Z,91.30
2019-02-08T03:41:58.164Z,91.20
2019-02-08T03:44:27.809Z,91.30
2019-02-08T03:46:56.883Z,91.40
2019-02-08T03:49:26.229Z,91.30
2019-02-08T03:51:55.632Z,91.30
2019-02-08T03:54:24.969Z,91.20
2019-02-08T03:56:54.085Z,91.10
2019-02-08T03:59:24.574Z,90.90
2019-02-08T04:01:54.518Z,90.90
2019-02-08T04:04:23.642Z,90.90
2019-02-08T04:06:53.661Z,90.90
2019-02-08T04:09:23.317Z,90.90
2019-02-08T04:11:53.015Z,90.80
2019-02-08T04:14:22.086Z,90.90
2019-02-08T04:16:51.865Z,91.00
2019-02-08T04:19:21.587Z,90.90
2019-02-08T04:21:50.787Z,90.80
2019-02-08T04:24:19.989Z,90.90
2019-02-08T04:26:49.027Z,90.70
2019-02-08T04:29:18.960Z,90.80
2019-02-08T04:31:58.540Z,90.70
2019-02-08T04:34:27.996Z,90.70
2019-02-08T04:36:57.433Z,90.90
2019-02-08T04:39:26.402Z,90.90
2019-02-08T04:41:56.339Z,90.80
2019-02-08T04:44:26.259Z,91.00
2019-02-08T04:46:55.399Z,90.90
2019-02-08T04:49:24.384Z,90.70
2019-02-08T04:51:53.607Z,90.70
2019-02-08T04:54:22.632Z,90.70
2019-02-08T04:56:52.413Z,90.70
2019-02-08T04:59:21.581Z,91.10
2019-02-08T05:01:51.237Z,91.30
2019-02-08T05:04:22.116Z,91.30
2019-02-08T05:06:51.388Z,91.20
2019-02-08T05:09:20.813Z,91.30
2019-02-08T05:11:51.410Z,91.60
2019-02-08T05:14:21.039Z,91.50
2019-02-08T05:16:50.697Z,91.50
2019-02-08T05:19:20.863Z,91.40
2019-02-08T05:21:50.568Z,91.20
2019-02-08T05:24:20.084Z,91.30
2019-02-08T05:26:49.585Z,91.50
2019-02-08T05:29:18.809Z,91.30
2019-02-08T05:31:49.846Z,91.30
2019-02-08T05:34:25.800Z,91.30
2019-02-08T05:36:55.695Z,91.60
2019-02-08T05:39:25.345Z,91.70
2019-02-08T05:41:54.662Z,91.40
2019-02-08T05:44:24.406Z,91.60
2019-02-08T05:46:54.074Z,91.30
2019-02-08T05:49:24.550Z,91.20
2019-02-08T05:51:55.375Z,91.20
2019-02-08T05:54:27.786Z,91.30
2019-02-08T05:57:00.233Z,91.40
2019-02-08T05:59:30.426Z,91.30
2019-02-08T06:02:00.745Z,92.00
2019-02-08T06:04:30.284Z,91.40
2019-02-08T06:07:00.344Z,91.80
2019-02-08T06:09:30.291Z,91.80
2019-02-08T06:12:00.132Z,91.50
2019-02-08T06:14:29.681Z,91.70
2019-02-08T06:16:59.481Z,91.80
2019-02-08T06:19:29.284Z,91.60
2019-02-08T06:21:59.463Z,91.60
2019-02-08T06:24:31.146Z,91.60
2019-02-08T06:27:02.255Z,91.50
2019-02-08T06:29:31.697Z,91.50
2019-02-08T06:32:01.701Z,91.50
2019-02-08T06:34:31.419Z,91.70
2019-02-08T06:37:01.425Z,91.50
2019-02-08T06:39:31.986Z,91.60
2019-02-08T06:42:01.580Z,91.20
2019-02-08T06:44:35.090Z,91.40
2019-02-08T06:47:04.359Z,90.80
2019-02-08T06:49:34.188Z,90.90
2019-02-08T06:52:04.175Z,90.60
2019-02-08T06:54:33.483Z,90.80
2019-02-08T06:57:22.889Z,90.90
2019-02-08T07:00:18.622Z,90.80
2019-02-08T07:03:10.509Z,90.00
2019-02-08T07:05:56.360Z,90.30
2019-02-08T07:08:51.320Z,89.60
2019-02-08T07:11:38.677Z,90.00
2019-02-08T07:14:16.246Z,90.10
2019-02-08T07:17:13.602Z,90.10
2019-02-08T07:20:01.839Z,90.50
2019-02-08T07:22:49.334Z,90.80
2019-02-08T07:25:52.709Z,90.60
2019-02-08T07:28:39.999Z,90.30
2019-02-08T07:31:26.997Z,89.90
2019-02-08T07:34:15.224Z,90.00
2019-02-08T07:36:56.857Z,90.40
2019-02-08T07:39:53.898Z,90.40
2019-02-08T07:42:46.068Z,89.40
2019-02-08T07:45:41.151Z,89.40
2019-02-08T07:48:30.299Z,90.20
2019-02-08T07:51:09.832Z,90.10
2019-02-08T07:53:58.064Z,89.00
2019-02-08T07:56:52.637Z,89.40
2019-02-08T07:59:54.723Z,88.30
2019-02-08T08:02:44.162Z,87.00
2019-02-08T08:05:33.063Z,87.10
2019-02-08T08:08:22.850Z,86.70
2019-02-08T08:11:04.677Z,86.10
2019-02-08T08:13:58.357Z,86.80
2019-02-08T08:16:47.068Z,86.30
2019-02-08T08:19:39.322Z,86.30
2019-02-08T08:22:32.311Z,84.10
2019-02-08T08:25:34.120Z,83.20
2019-02-08T08:28:12.216Z,82.50
2019-02-08T08:30:58.324Z,82.30
2019-02-08T08:33:38.484Z,81.20
2019-02-08T08:37:01.863Z,81.40
2019-02-08T08:40:13.955Z,82.40
2019-02-08T08:43:08.339Z,79.90
2019-02-08T08:46:08.738Z,80.20
2019-02-08T08:49:23.536Z,78.80
2019-02-08T08:52:19.314Z,77.60
2019-02-08T08:55:26.070Z,76.10
2019-02-08T08:58:27.809Z,72.30
2019-02-08T09:01:30.903Z,69.20
2019-02-08T09:04:38.451Z,63.90
2019-02-08T09:07:58.290Z,61.40
2019-02-08T09:11:13.743Z,60.30
2019-02-08T09:14:08.818Z,53.10
2019-02-08T09:16:51.913Z,52.60
2019-02-08T09:20:01.458Z,50.50
2019-02-08T09:23:26.976Z,50.30
2019-02-08T09:26:46.518Z,46.10
2019-02-08T09:30:04.716Z,47.70
2019-02-08T09:33:18.442Z,44.00
2019-02-08T09:36:34.215Z,41.50
2019-02-08T09:39:23.090Z,38.90
2019-02-08T09:42:48.546Z,41.00
2019-02-08T09:45:54.270Z,44.70
2019-02-08T09:48:51.420Z,38.60
2019-02-08T09:52:03.684Z,39.80
2019-02-08T09:55:21.062Z,43.40
2019-02-08T09:58:39.140Z,36.60
2019-02-08T10:01:50.300Z,33.60
2019-02-08T10:05:02.914Z,37.60
2019-02-08T10:08:22.184Z,32.00
2019-02-08T10:11:45.713Z,31.90
2019-02-08T10:15:05.537Z,29.30
2019-02-08T10:18:21.502Z,28.60
2019-02-08T10:21:28.473Z,27.60
2019-02-08T10:24:40.825Z,32.00
2019-02-08T10:27:46.869Z,27.90
2019-02-08T10:30:59.792Z,33.20
2019-02-08T10:34:10.931Z,31.60
2019-02-08T10:37:15.955Z,31.00
2019-02-08T10:40:23.543Z,33.90
2019-02-08T10:43:23.889Z,34.40
2019-02-08T10:46:37.765Z,39.00
2019-02-08T10:49:38.491Z,39.70
2019-02-08T10:52:44.336Z,41.50
2019-02-08T10:55:53.821Z,46.90
2019-02-08T10:59:05.494Z,56.10
2019-02-08T11:02:11.979Z,72.40
2019-02-08T11:05:41.970Z,59.10
2019-02-08T11:09:01.363Z,64.80
2019-02-08T11:12:14.522Z,71.20
2019-02-08T11:15:32.587Z,68.20
2019-02-08T11:18:38.444Z,61.90
2019-02-08T11:21:07.765Z,62.40
2019-02-08T11:23:37.174Z,55.60
2019-02-08T11:26:07.401Z,71.10
2019-02-08T11:28:41.111Z,56.40
2019-02-08T11:31:14.707Z,63.40
2019-02-08T11:33:51.160Z,59.10
2019-02-08T11:36:22.247Z,64.30
2019-02-08T11:38:56.434Z,54.50
2019-02-08T11:41:27.828Z,59.90
2019-02-08T11:43:59.402Z,56.70
2019-02-08T11:46:30.614Z,66.00
2019-02-08T11:49:01.971Z,51.50
2019-02-08T11:51:31.258Z,54.60
2019-02-08T11:54:02.010Z,60.30
2019-02-08T11:56:34.289Z,55.90
2019-02-08T11:59:05.950Z,54.50
2019-02-08T12:01:40.987Z,54.70
2019-02-08T12:04:10.222Z,57.40
2019-02-08T12:06:39.858Z,61.20
2019-02-08T12:09:13.395Z,63.30
2019-02-08T12:11:55.401Z,55.70
2019-02-08T12:14:26.455Z,53.80
2019-02-08T12:16:55.796Z,57.90
2019-02-08T12:19:26.708Z,57.30
2019-02-08T12:21:56.176Z,55.30
2019-02-08T12:24:26.837Z,54.50
2019-02-08T12:26:56.892Z,56.40
2019-02-08T12:29:25.975Z,53.50
2019-02-08T12:31:55.095Z,50.00
2019-02-08T12:34:25.082Z,52.90
2019-02-08T12:36:54.513Z,53.00
2019-02-08T12:39:26.909Z,57.10
2019-02-08T12:41:56.669Z,60.40
2019-02-08T12:44:25.814Z,48.80
2019-02-08T12:46:55.304Z,51.80
2019-02-08T12:49:26.648Z,48.40
2019-02-08T12:51:57.302Z,48.00
2019-02-08T12:54:28.547Z,47.70
2019-02-08T12:56:59.168Z,46.70
2019-02-08T12:59:28.750Z,46.30
2019-02-08T13:01:57.914Z,46.80
2019-02-08T13:04:27.606Z,48.30
2019-02-08T13:06:56.759Z,47.70
2019-02-08T13:09:26.198Z,52.40
2019-02-08T13:11:56.601Z,46.70
2019-02-08T13:14:25.956Z,53.20
2019-02-08T13:16:55.751Z,57.90
2019-02-08T13:19:24.972Z,46.70
2019-02-08T13:21:56.101Z,49.70
2019-02-08T13:24:25.749Z,49.70
2019-02-08T13:26:55.204Z,56.00
2019-02-08T13:29:28.301Z,58.10
2019-02-08T13:31:57.861Z,47.50
2019-02-08T13:34:27.269Z,48.30
2019-02-08T13:36:56.706Z,56.00
2019-02-08T13:39:25.953Z,60.80
2019-02-08T13:41:56.175Z,58.50
2019-02-08T13:44:25.842Z,52.60
2019-02-08T13:46:55.013Z,62.60
2019-02-08T13:49:24.670Z,62.70
2019-02-08T13:51:54.108Z,61.20
2019-02-08T13:54:23.864Z,50.60
2019-02-08T13:57:00.550Z,52.30
2019-02-08T13:59:24.778Z,46.40
2019-02-08T14:01:54.349Z,49.00
2019-02-08T14:04:23.698Z,61.70
2019-02-08T14:06:53.142Z,54.00
2019-02-08T14:09:22.925Z,53.70
2019-02-08T14:11:52.353Z,61.50
2019-02-08T14:14:23.484Z,52.90
2019-02-08T14:16:53.515Z,54.80
2019-02-08T14:19:23.147Z,56.10
2019-02-08T14:21:52.626Z,50.30
2019-02-08T14:24:22.023Z,48.40
2019-02-08T14:26:51.486Z,45.50
2019-02-08T14:29:20.695Z,53.00
2019-02-08T14:31:49.803Z,49.30
2019-02-08T14:34:19.506Z,52.60
2019-02-08T14:36:48.816Z,50.00
2019-02-08T14:39:18.084Z,56.90
2019-02-08T14:41:47.411Z,51.20
2019-02-08T14:44:17.234Z,55.80
2019-02-08T14:46:46.644Z,62.00
2019-02-08T14:49:16.170Z,55.10
2019-02-08T14:51:45.334Z,56.20
2019-02-08T14:54:14.556Z,54.10
2019-02-08T14:56:43.823Z,54.50
2019-02-08T14:59:14.403Z,64.70
2019-02-08T15:01:44.204Z,57.60
2019-02-08T15:04:15.441Z,58.20
2019-02-08T15:06:46.144Z,55.80
2019-02-08T15:09:15.494Z,57.90
2019-02-08T15:11:47.316Z,58.40
2019-02-08T15:14:19.366Z,64.50
2019-02-08T15:16:49.195Z,64.00
2019-02-08T15:19:18.682Z,67.20
2019-02-08T15:21:48.548Z,61.00
2019-02-08T15:24:18.050Z,59.10
2019-02-08T15:26:48.041Z,61.90
2019-02-08T15:29:17.653Z,59.60
2019-02-08T15:31:48.891Z,65.60
2019-02-08T15:34:19.021Z,62.60
2019-02-08T15:36:49.687Z,61.80
2019-02-08T15:39:19.387Z,63.10
2019-02-08T15:42:04.335Z,60.00
2019-02-08T15:44:42.822Z,69.90
2019-02-08T15:47:14.267Z,60.60
2019-02-08T15:49:43.729Z,57.70
2019-02-08T15:52:13.294Z,58.40
2019-02-08T15:54:44.606Z,61.10
2019-02-08T15:57:14.457Z,67.30
2019-02-08T15:59:44.265Z,71.10
2019-02-08T16:02:20.591Z,66.70
2019-02-08T16:04:53.156Z,69.40
2019-02-08T16:07:24.268Z,68.90
2019-02-08T16:09:57.492Z,67.30
2019-02-08T16:12:26.696Z,69.10
2019-02-08T16:14:56.465Z,68.10
2019-02-08T16:17:26.294Z,67.80
2019-02-08T16:19:59.323Z,66.50
2019-02-08T16:22:30.582Z,67.60
2019-02-08T16:25:02.381Z,68.10
2019-02-08T16:27:39.921Z,71.60
2019-02-08T16:30:23.181Z,68.20
2019-02-08T16:32:53.393Z,72.20
2019-02-08T16:35:24.266Z,70.00
2019-02-08T16:37:57.260Z,69.20
2019-02-08T16:40:28.497Z,68.50
2019-02-08T16:42:58.368Z,69.00
2019-02-08T16:45:33.857Z,73.30
2019-02-08T16:48:05.499Z,72.20
2019-02-08T16:50:37.422Z,71.50
2019-02-08T16:53:09.748Z,71.40
2019-02-08T16:55:40.217Z,69.10
2019-02-08T16:58:10.232Z,71.80
2019-02-08T17:00:39.809Z,71.10
2019-02-08T17:03:13.459Z,70.20
2019-02-08T17:05:43.561Z,69.60
2019-02-08T17:08:15.010Z,68.00
2019-02-08T17:10:44.669Z,68.70
2019-02-08T17:13:14.673Z,71.70
2019-02-08T17:15:44.494Z,73.70
2019-02-08T17:18:17.919Z,68.70
2019-02-08T17:20:48.992Z,70.80
2019-02-08T17:23:18.950Z,72.10
2019-02-08T17:25:49.664Z,73.60
2019-02-08T17:28:20.234Z,75.00
2019-02-08T17:30:54.014Z,71.30
2019-02-08T17:33:28.627Z,72.90
2019-02-08T17:35:58.971Z,74.40
2019-02-08T17:38:30.542Z,70.40
2019-02-08T17:41:02.388Z,71.70
2019-02-08T17:43:35.976Z,72.20
2019-02-08T17:46:07.534Z,70.60
2019-02-08T17:48:37.109Z,74.10
2019-02-08T17:51:07.325Z,74.60
2019-02-08T17:53:40.119Z,73.30
2019-02-08T17:56:09.344Z,73.20
2019-02-08T17:58:42.695Z,73.80
2019-02-08T18:01:12.408Z,70.90
2019-02-08T18:03:45.454Z,72.80
2019-02-08T18:06:15.067Z,73.50
2019-02-08T18:08:44.917Z,73.90
2019-02-08T18:11:14.786Z,72.00
2019-02-08T18:13:43.903Z,73.20
2019-02-08T18:16:13.972Z,73.70
2019-02-08T18:18:43.111Z,77.50
2019-02-08T18:21:13.115Z,75.50
2019-02-08T18:23:43.111Z,74.70
2019-02-08T18:26:13.350Z,75.70
2019-02-08T18:28:42.789Z,74.40
2019-02-08T18:31:12.363Z,74.00
2019-02-08T18:33:42.105Z,72.30
2019-02-08T18:36:11.463Z,74.60
2019-02-08T18:38:42.524Z,73.60
2019-02-08T18:41:15.519Z,75.10
2019-02-08T18:43:45.251Z,75.50
2019-02-08T18:46:15.563Z,74.50
2019-02-08T18:48:46.007Z,73.80
2019-02-08T18:51:17.033Z,75.80
2019-02-08T18:53:47.175Z,77.30
2019-02-08T18:56:17.609Z,77.80
2019-02-08T18:58:48.718Z,74.80
2019-02-08T19:01:18.888Z,74.40
2019-02-08T19:03:49.089Z,77.10
2019-02-08T19:06:19.002Z,75.70
2019-02-08T19:08:51.527Z,74.70
2019-02-08T19:11:22.520Z,77.10
2019-02-08T19:13:52.765Z,76.80
2019-02-08T19:16:24.582Z,77.40
2019-02-08T19:18:58.189Z,76.20
2019-02-08T19:21:27.369Z,75.00
2019-02-08T19:23:57.470Z,75.30
2019-02-08T19:26:27.506Z,75.50
2019-02-08T19:28:58.557Z,76.00
2019-02-08T19:31:27.892Z,73.60
2019-02-08T19:33:58.220Z,77.60
2019-02-08T19:36:28.118Z,76.40
2019-02-08T19:38:57.987Z,75.50
2019-02-08T19:41:35.541Z,73.90
2019-02-08T19:44:02.334Z,76.30
2019-02-08T19:46:36.880Z,75.00
2019-02-08T19:49:06.467Z,76.50
2019-02-08T19:51:37.067Z,77.70
2019-02-08T19:54:07.430Z,77.60
2019-02-08T19:56:36.878Z,76.90
2019-02-08T19:59:06.162Z,77.60
2019-02-08T20:01:36.155Z,79.20
2019-02-08T20:04:05.778Z,76.40
2019-02-08T20:06:35.613Z,78.40
2019-02-08T20:09:07.554Z,79.10
2019-02-08T20:11:37.239Z,79.20
2019-02-08T20:14:06.652Z,78.70
2019-02-08T20:16:37.841Z,78.20
2019-02-08T20:19:08.072Z,78.10
2019-02-08T20:21:37.913Z,78.90
2019-02-08T20:24:08.462Z,79.00
2019-02-08T20:26:37.700Z,81.20
2019-02-08T20:29:08.097Z,80.00
2019-02-08T20:31:38.006Z,80.30
2019-02-08T20:34:08.477Z,78.60
2019-02-08T20:36:45.504Z,78.50
2019-02-08T20:39:24.540Z,79.60
2019-02-08T20:41:54.196Z,80.60
2019-02-08T20:44:23.524Z,79.50
2019-02-08T20:46:53.009Z,79.60
2019-02-08T20:49:22.514Z,80.90
2019-02-08T20:51:52.153Z,80.20
2019-02-08T20:54:22.043Z,81.30
2019-02-08T20:57:20.592Z,80.00
2019-02-08T20:59:54.490Z,79.00
2019-02-08T21:02:24.194Z,79.80
2019-02-08T21:04:55.718Z,79.70
2019-02-08T21:07:25.281Z,78.70
2019-02-08T21:09:55.082Z,80.70
2019-02-08T21:12:24.444Z,78.20
2019-02-08T21:14:53.473Z,77.50
2019-02-08T21:17:24.988Z,80.40
2019-02-08T21:19:54.734Z,80.20
2019-02-08T21:22:24.629Z,80.00
2019-02-08T21:24:54.770Z,77.60
2019-02-08T21:27:25.629Z,76.90
2019-02-08T21:29:54.765Z,80.70
2019-02-08T21:32:23.829Z,78.10
2019-02-08T21:34:52.807Z,75.80
2019-02-08T21:37:21.958Z,79.20
2019-02-08T21:39:51.680Z,78.20
2019-02-08T21:42:21.515Z,81.20
2019-02-08T21:44:51.570Z,81.20
2019-02-08T21:47:21.308Z,79.60
2019-02-08T21:49:51.351Z,77.00
2019-02-08T21:52:22.042Z,78.50
2019-02-08T21:54:51.879Z,79.30
2019-02-08T21:57:22.710Z,76.50
2019-02-08T21:59:52.208Z,77.70
2019-02-08T22:02:22.599Z,80.50
2019-02-08T22:04:51.854Z,81.80
2019-02-08T22:07:21.433Z,82.60
2019-02-08T22:09:51.073Z,81.00
2019-02-08T22:12:21.034Z,79.00
2019-02-08T22:14:50.642Z,81.10
2019-02-08T22:17:19.998Z,79.90
2019-02-08T22:19:49.517Z,78.90
2019-02-08T22:22:19.722Z,81.20
2019-02-08T22:24:49.001Z,79.00
2019-02-08T22:27:18.449Z,78.80
2019-02-08T22:29:48.001Z,80.90
2019-02-08T22:32:17.121Z,78.20
2019-02-08T22:34:46.715Z,78.90
2019-02-08T22:37:16.019Z,76.80
2019-02-08T22:39:45.569Z,77.30
2019-02-08T22:42:15.678Z,76.60
2019-02-08T22:44:44.953Z,79.10
2019-02-08T22:47:14.118Z,76.80
2019-02-08T22:49:44.765Z,79.90
2019-02-08T22:52:14.237Z,80.00
2019-02-08T22:54:43.750Z,79.10
2019-02-08T22:57:13.259Z,78.40
2019-02-08T22:59:43.584Z,78.50
2019-02-08T23:02:12.981Z,75.90
2019-02-08T23:04:44.419Z,75.60
2019-02-08T23:07:13.857Z,76.10
2019-02-08T23:09:43.434Z,74.40
2019-02-08T23:12:13.612Z,77.10
2019-02-08T23:14:44.169Z,78.40
2019-02-08T23:17:13.764Z,78.50
2019-02-08T23:19:43.030Z,78.00
2019-02-08T23:22:12.886Z,78.00
2019-02-08T23:24:42.371Z,80.60
2019-02-08T23:27:13.366Z,80.90
2019-02-08T23:29:43.838Z,82.60
2019-02-08T23:32:13.471Z,78.80
2019-02-08T23:34:42.998Z,78.50
2019-02-08T23:37:12.470Z,79.30
2019-02-08T23:39:41.935Z,79.00
2019-02-08T23:42:11.154Z,77.30
2019-02-08T23:44:40.404Z,79.50
2019-02-08T23:47:09.766Z,76.70
2019-02-08T23:49:39.495Z,76.90
2019-02-08T23:52:08.990Z,75.50
2019-02-08T23:54:38.613Z,77.70
2019-02-08T23:57:08.222Z,75.70
2019-02-08T23:59:38.365Z,78.90
